sensor_id;sensor_type;location;lat;lon;timestamp;pressure;altitude;pressure_sealevel;temperature;humidity
4576;BME280;2300;51.874;8.430;2023-07-13T00:01:45;100515.88;;;16.62;80.88
4576;BME280;2300;51.874;8.430;2023-07-13T00:04:16;100521.41;;;16.62;81.73
4576;BME280;2300;51.874;8.430;2023-07-13T00:06:43;100517.81;;;16.56;81.39
4576;BME280;2300;51.874;8.430;2023-07-13T00:09:11;100526.13;;;16.51;81.31
4576;BME280;2300;51.874;8.430;2023-07-13T00:11:38;100530.00;;;16.50;81.56
4576;BME280;2300;51.874;8.430;2023-07-13T00:14:05;100541.91;;;16.51;81.82
4576;BME280;2300;51.874;8.430;2023-07-13T00:16:33;100539.41;;;16.39;81.86
4576;BME280;2300;51.874;8.430;2023-07-13T00:19:00;100537.44;;;16.29;82.94
4576;BME280;2300;51.874;8.430;2023-07-13T00:21:30;100544.41;;;16.37;82.91
4576;BME280;2300;51.874;8.430;2023-07-13T00:23:58;100540.22;;;16.29;83.12
4576;BME280;2300;51.874;8.430;2023-07-13T00:26:25;100538.81;;;16.22;84.07
4576;BME280;2300;51.874;8.430;2023-07-13T00:28:52;100543.53;;;16.21;83.63
4576;BME280;2300;51.874;8.430;2023-07-13T00:31:19;100542.97;;;16.24;83.38
4576;BME280;2300;51.874;8.430;2023-07-13T00:33:45;100550.72;;;16.22;83.47
4576;BME280;2300;51.874;8.430;2023-07-13T00:36:12;100539.38;;;16.24;82.96
4576;BME280;2300;51.874;8.430;2023-07-13T00:38:41;100545.72;;;16.19;83.41
4576;BME280;2300;51.874;8.430;2023-07-13T00:41:09;100541.28;;;16.13;83.77
4576;BME280;2300;51.874;8.430;2023-07-13T00:43:36;100545.16;;;16.17;83.41
4576;BME280;2300;51.874;8.430;2023-07-13T00:46:20;100535.19;;;16.11;84.53
4576;BME280;2300;51.874;8.430;2023-07-13T00:48:48;100529.66;;;16.11;84.89
4576;BME280;2300;51.874;8.430;2023-07-13T00:51:19;100534.06;;;16.17;84.37
4576;BME280;2300;51.874;8.430;2023-07-13T00:53:50;100538.53;;;16.18;83.87
4576;BME280;2300;51.874;8.430;2023-07-13T00:56:17;100538.00;;;16.21;83.92
4576;BME280;2300;51.874;8.430;2023-07-13T00:58:45;100541.06;;;16.30;83.98
4576;BME280;2300;51.874;8.430;2023-07-13T01:01:13;100538.56;;;16.39;83.00
4576;BME280;2300;51.874;8.430;2023-07-13T01:03:40;100546.63;;;16.50;82.21
4576;BME280;2300;51.874;8.430;2023-07-13T01:06:10;100549.66;;;16.59;82.30
4576;BME280;2300;51.874;8.430;2023-07-13T01:08:37;100548.56;;;16.65;81.88
4576;BME280;2300;51.874;8.430;2023-07-13T01:11:06;100547.19;;;16.62;81.76
4576;BME280;2300;51.874;8.430;2023-07-13T01:13:34;100554.69;;;16.77;81.68
4576;BME280;2300;51.874;8.430;2023-07-13T01:16:04;100542.19;;;16.74;81.48
4576;BME280;2300;51.874;8.430;2023-07-13T01:18:33;100545.28;;;16.73;81.73
4576;BME280;2300;51.874;8.430;2023-07-13T01:21:04;100553.28;;;16.64;82.00
4576;BME280;2300;51.874;8.430;2023-07-13T01:23:31;100543.03;;;16.75;82.02
4576;BME280;2300;51.874;8.430;2023-07-13T01:25:59;100546.38;;;16.72;82.01
4576;BME280;2300;51.874;8.430;2023-07-13T01:28:27;100550.81;;;16.78;82.25
4576;BME280;2300;51.874;8.430;2023-07-13T01:30:56;100549.16;;;16.82;81.83
4576;BME280;2300;51.874;8.430;2023-07-13T01:33:24;100551.09;;;16.87;81.63
4576;BME280;2300;51.874;8.430;2023-07-13T01:35:52;100537.50;;;16.75;81.15
4576;BME280;2300;51.874;8.430;2023-07-13T01:38:23;100551.09;;;16.76;81.29
4576;BME280;2300;51.874;8.430;2023-07-13T01:40:50;100544.13;;;16.84;81.20
4576;BME280;2300;51.874;8.430;2023-07-13T01:43:17;100549.41;;;16.86;81.07
4576;BME280;2300;51.874;8.430;2023-07-13T01:45:46;100561.59;;;16.90;80.92
4576;BME280;2300;51.874;8.430;2023-07-13T01:48:13;100544.97;;;17.00;80.97
4576;BME280;2300;51.874;8.430;2023-07-13T01:50:40;100562.47;;;17.10;80.94
4576;BME280;2300;51.874;8.430;2023-07-13T01:53:07;100554.72;;;17.12;80.99
4576;BME280;2300;51.874;8.430;2023-07-13T01:55:35;100557.22;;;17.19;81.26
4576;BME280;2300;51.874;8.430;2023-07-13T01:58:03;100553.31;;;17.25;80.85
4576;BME280;2300;51.874;8.430;2023-07-13T02:00:32;100556.66;;;17.17;80.86
4576;BME280;2300;51.874;8.430;2023-07-13T02:02:59;100535.88;;;17.04;80.28
4576;BME280;2300;51.874;8.430;2023-07-13T02:05:26;100554.44;;;17.09;80.54
4576;BME280;2300;51.874;8.430;2023-07-13T02:07:52;100549.16;;;16.82;82.20
4576;BME280;2300;51.874;8.430;2023-07-13T02:10:19;100549.69;;;16.64;83.05
4576;BME280;2300;51.874;8.430;2023-07-13T02:12:48;100554.41;;;16.63;82.97
4576;BME280;2300;51.874;8.430;2023-07-13T02:15:15;100553.00;;;16.51;84.19
4576;BME280;2300;51.874;8.430;2023-07-13T02:17:41;100555.19;;;16.44;84.44
4576;BME280;2300;51.874;8.430;2023-07-13T02:20:09;100543.25;;;16.28;85.40
4576;BME280;2300;51.874;8.430;2023-07-13T02:22:35;100549.59;;;16.18;86.29
4576;BME280;2300;51.874;8.430;2023-07-13T02:25:02;100562.31;;;16.09;86.92
4576;BME280;2300;51.874;8.430;2023-07-13T02:27:29;100558.41;;;16.05;86.36
4576;BME280;2300;51.874;8.430;2023-07-13T02:29:57;100556.44;;;15.96;87.04
4576;BME280;2300;51.874;8.430;2023-07-13T02:32:24;100557.56;;;16.00;87.14
4576;BME280;2300;51.874;8.430;2023-07-13T02:34:52;100549.75;;;15.91;87.49
4576;BME280;2300;51.874;8.430;2023-07-13T02:37:19;100561.56;;;15.72;88.77
4576;BME280;2300;51.874;8.430;2023-07-13T02:39:46;100557.13;;;15.71;88.88
4576;BME280;2300;51.874;8.430;2023-07-13T02:42:13;100557.44;;;15.69;89.54
4576;BME280;2300;51.874;8.430;2023-07-13T02:44:39;100546.88;;;15.66;89.39
4576;BME280;2300;51.874;8.430;2023-07-13T02:47:07;100549.63;;;15.61;89.08
4576;BME280;2300;51.874;8.430;2023-07-13T02:49:35;100555.13;;;15.56;89.53
4576;BME280;2300;51.874;8.430;2023-07-13T02:52:03;100555.69;;;15.53;89.84
4576;BME280;2300;51.874;8.430;2023-07-13T02:54:30;100548.16;;;15.43;89.95
4576;BME280;2300;51.874;8.430;2023-07-13T02:56:56;100529.81;;;15.32;90.60
4576;BME280;2300;51.874;8.430;2023-07-13T02:59:22;100558.91;;;15.40;90.40
4576;BME280;2300;51.874;8.430;2023-07-13T03:01:50;100567.94;;;15.25;90.59
4576;BME280;2300;51.874;8.430;2023-07-13T03:04:18;100571.28;;;15.27;90.51
4576;BME280;2300;51.874;8.430;2023-07-13T03:06:45;100563.03;;;15.32;90.27
4576;BME280;2300;51.874;8.430;2023-07-13T03:09:12;100570.22;;;15.33;89.44
4576;BME280;2300;51.874;8.430;2023-07-13T03:11:39;100565.66;;;15.12;89.88
4576;BME280;2300;51.874;8.430;2023-07-13T03:14:08;100565.00;;;15.05;90.01
4576;BME280;2300;51.874;8.430;2023-07-13T03:16:34;100567.59;;;15.12;89.42
4576;BME280;2300;51.874;8.430;2023-07-13T03:19:01;100561.69;;;15.08;89.43
4576;BME280;2300;51.874;8.430;2023-07-13T03:21:29;100570.44;;;14.95;88.95
4576;BME280;2300;51.874;8.430;2023-07-13T03:23:55;100575.47;;;15.03;88.64
4576;BME280;2300;51.874;8.430;2023-07-13T03:26:23;100576.31;;;15.03;88.50
4576;BME280;2300;51.874;8.430;2023-07-13T03:28:51;100574.63;;;14.97;88.91
4576;BME280;2300;51.874;8.430;2023-07-13T03:31:18;100578.13;;;14.88;89.44
4576;BME280;2300;51.874;8.430;2023-07-13T03:33:46;100579.84;;;14.94;89.55
4576;BME280;2300;51.874;8.430;2023-07-13T03:36:15;100581.25;;;14.96;88.72
4576;BME280;2300;51.874;8.430;2023-07-13T03:38:45;100579.59;;;14.95;88.27
4576;BME280;2300;51.874;8.430;2023-07-13T03:41:13;100585.88;;;14.86;88.35
4576;BME280;2300;51.874;8.430;2023-07-13T03:43:40;100593.38;;;14.90;88.16
4576;BME280;2300;51.874;8.430;2023-07-13T03:46:06;100599.72;;;14.91;88.03
4576;BME280;2300;51.874;8.430;2023-07-13T03:48:33;100603.59;;;14.90;87.64
4576;BME280;2300;51.874;8.430;2023-07-13T03:50:59;100605.47;;;14.84;87.75
4576;BME280;2300;51.874;8.430;2023-07-13T03:53:26;100610.38;;;14.77;87.69
4576;BME280;2300;51.874;8.430;2023-07-13T03:55:54;100599.00;;;14.74;87.55
4576;BME280;2300;51.874;8.430;2023-07-13T03:58:38;100594.13;;;14.81;87.46
4576;BME280;2300;51.874;8.430;2023-07-13T04:01:07;100608.19;;;14.79;87.08
4576;BME280;2300;51.874;8.430;2023-07-13T04:03:34;100607.88;;;14.76;86.21
4576;BME280;2300;51.874;8.430;2023-07-13T04:06:04;100606.00;;;14.81;86.44
4576;BME280;2300;51.874;8.430;2023-07-13T04:08:33;100613.31;;;14.92;86.83
4576;BME280;2300;51.874;8.430;2023-07-13T04:11:01;100620.75;;;14.92;86.42
4576;BME280;2300;51.874;8.430;2023-07-13T04:13:28;100612.47;;;14.92;86.06
4576;BME280;2300;51.874;8.430;2023-07-13T04:15:56;100614.16;;;14.98;85.76
4576;BME280;2300;51.874;8.430;2023-07-13T04:18:22;100621.94;;;15.01;85.15
4576;BME280;2300;51.874;8.430;2023-07-13T04:20:50;100623.53;;;14.92;85.68
4576;BME280;2300;51.874;8.430;2023-07-13T04:23:18;100627.75;;;15.04;85.47
4576;BME280;2300;51.874;8.430;2023-07-13T04:25:46;100610.16;;;14.84;85.08
4576;BME280;2300;51.874;8.430;2023-07-13T04:28:16;100622.97;;;14.95;85.08
4576;BME280;2300;51.874;8.430;2023-07-13T04:30:43;100632.06;;;15.17;85.31
4576;BME280;2300;51.874;8.430;2023-07-13T04:33:09;100635.91;;;15.16;84.61
4576;BME280;2300;51.874;8.430;2023-07-13T04:35:39;100641.44;;;15.16;83.98
4576;BME280;2300;51.874;8.430;2023-07-13T04:38:06;100641.53;;;15.26;83.81
4576;BME280;2300;51.874;8.430;2023-07-13T04:40:34;100645.44;;;15.30;83.81
4576;BME280;2300;51.874;8.430;2023-07-13T04:43:01;100641.56;;;15.31;83.46
4576;BME280;2300;51.874;8.430;2023-07-13T04:45:29;100640.63;;;15.53;83.42
4576;BME280;2300;51.874;8.430;2023-07-13T04:47:56;100644.06;;;15.70;82.55
4576;BME280;2300;51.874;8.430;2023-07-13T04:50:24;100635.78;;;15.75;81.79
4576;BME280;2300;51.874;8.430;2023-07-13T04:52:52;100635.72;;;16.12;81.15
4576;BME280;2300;51.874;8.430;2023-07-13T04:55:20;100639.53;;;16.73;77.79
4576;BME280;2300;51.874;8.430;2023-07-13T04:57:47;100639.03;;;17.11;77.47
4576;BME280;2300;51.874;8.430;2023-07-13T05:00:15;100639.53;;;17.79;74.65
4576;BME280;2300;51.874;8.430;2023-07-13T05:02:44;100642.06;;;17.60;73.68
4576;BME280;2300;51.874;8.430;2023-07-13T05:05:11;100642.84;;;17.86;74.20
4576;BME280;2300;51.874;8.430;2023-07-13T05:07:40;100651.16;;;18.01;73.35
4576;BME280;2300;51.874;8.430;2023-07-13T05:10:08;100647.56;;;18.01;72.76
4576;BME280;2300;51.874;8.430;2023-07-13T05:12:36;100644.41;;;18.28;72.68
4576;BME280;2300;51.874;8.430;2023-07-13T05:15:04;100647.25;;;18.13;73.14
4576;BME280;2300;51.874;8.430;2023-07-13T05:17:30;100652.34;;;18.50;72.45
4576;BME280;2300;51.874;8.430;2023-07-13T05:19:59;100666.53;;;18.48;72.16
4576;BME280;2300;51.874;8.430;2023-07-13T05:22:26;100663.78;;;18.43;72.11
4576;BME280;2300;51.874;8.430;2023-07-13T05:24:54;100662.53;;;18.69;71.56
4576;BME280;2300;51.874;8.430;2023-07-13T05:27:21;100659.50;;;19.10;71.04
4576;BME280;2300;51.874;8.430;2023-07-13T05:29:49;100665.13;;;19.73;69.10
4576;BME280;2300;51.874;8.430;2023-07-13T05:32:17;100662.28;;;21.43;64.18
4576;BME280;2300;51.874;8.430;2023-07-13T05:34:44;100660.69;;;22.29;61.16
4576;BME280;2300;51.874;8.430;2023-07-13T05:37:12;100678.38;;;23.15;58.62
4576;BME280;2300;51.874;8.430;2023-07-13T05:39:39;100674.22;;;23.48;57.19
4576;BME280;2300;51.874;8.430;2023-07-13T05:42:07;100681.72;;;23.61;56.91
4576;BME280;2300;51.874;8.430;2023-07-13T05:44:35;100685.94;;;24.03;56.10
4576;BME280;2300;51.874;8.430;2023-07-13T05:47:01;100677.25;;;24.61;55.93
4576;BME280;2300;51.874;8.430;2023-07-13T05:49:29;100678.63;;;24.72;54.85
4576;BME280;2300;51.874;8.430;2023-07-13T05:51:56;100678.53;;;25.38;53.88
4576;BME280;2300;51.874;8.430;2023-07-13T05:54:25;100687.53;;;26.42;52.62
4576;BME280;2300;51.874;8.430;2023-07-13T05:56:52;100678.00;;;25.62;52.02
4576;BME280;2300;51.874;8.430;2023-07-13T05:59:19;100684.56;;;25.83;52.75
4576;BME280;2300;51.874;8.430;2023-07-13T06:01:47;100679.47;;;25.68;51.65
4576;BME280;2300;51.874;8.430;2023-07-13T06:04:14;100686.00;;;25.97;51.71
4576;BME280;2300;51.874;8.430;2023-07-13T06:06:41;100686.88;;;25.81;52.59
4576;BME280;2300;51.874;8.430;2023-07-13T06:09:09;100694.63;;;26.48;51.61
4576;BME280;2300;51.874;8.430;2023-07-13T06:11:36;100685.75;;;26.28;51.08
4576;BME280;2300;51.874;8.430;2023-07-13T06:14:03;100686.69;;;26.03;51.16
4576;BME280;2300;51.874;8.430;2023-07-13T06:16:30;100689.59;;;25.51;51.75
4576;BME280;2300;51.874;8.430;2023-07-13T06:18:56;100676.91;;;25.92;51.87
4576;BME280;2300;51.874;8.430;2023-07-13T06:21:23;100688.50;;;26.46;50.84
4576;BME280;2300;51.874;8.430;2023-07-13T06:23:51;100685.16;;;26.14;51.04
4576;BME280;2300;51.874;8.430;2023-07-13T06:26:18;100685.53;;;26.04;51.71
4576;BME280;2300;51.874;8.430;2023-07-13T06:28:48;100685.53;;;25.95;53.15
4576;BME280;2300;51.874;8.430;2023-07-13T06:31:15;100688.78;;;26.53;52.54
4576;BME280;2300;51.874;8.430;2023-07-13T06:33:42;100683.94;;;25.69;51.92
4576;BME280;2300;51.874;8.430;2023-07-13T06:36:09;100681.31;;;25.64;53.10
4576;BME280;2300;51.874;8.430;2023-07-13T06:38:36;100683.69;;;25.91;52.55
4576;BME280;2300;51.874;8.430;2023-07-13T06:41:03;100691.25;;;25.44;54.08
4576;BME280;2300;51.874;8.430;2023-07-13T06:43:30;100685.13;;;25.33;53.48
4576;BME280;2300;51.874;8.430;2023-07-13T06:45:59;100674.88;;;25.20;54.48
4576;BME280;2300;51.874;8.430;2023-07-13T06:48:27;100679.88;;;24.49;55.76
4576;BME280;2300;51.874;8.430;2023-07-13T06:50:55;100678.94;;;24.71;56.14
4576;BME280;2300;51.874;8.430;2023-07-13T06:53:22;100675.91;;;23.80;57.15
4576;BME280;2300;51.874;8.430;2023-07-13T06:55:49;100672.19;;;23.93;58.15
4576;BME280;2300;51.874;8.430;2023-07-13T06:58:16;100680.72;;;23.57;58.11
4576;BME280;2300;51.874;8.430;2023-07-13T07:00:44;100676.47;;;23.90;58.67
4576;BME280;2300;51.874;8.430;2023-07-13T07:03:12;100691.88;;;23.13;59.52
4576;BME280;2300;51.874;8.430;2023-07-13T07:05:38;100695.34;;;23.54;60.30
4576;BME280;2300;51.874;8.430;2023-07-13T07:08:05;100706.63;;;23.40;60.41
4576;BME280;2300;51.874;8.430;2023-07-13T07:10:32;100690.19;;;22.89;61.32
4576;BME280;2300;51.874;8.430;2023-07-13T07:12:58;100689.69;;;21.73;62.71
4576;BME280;2300;51.874;8.430;2023-07-13T07:15:25;100702.03;;;20.60;66.43
4576;BME280;2300;51.874;8.430;2023-07-13T07:17:52;100700.72;;;20.28;67.24
4576;BME280;2300;51.874;8.430;2023-07-13T07:20:20;100696.94;;;20.85;67.00
4576;BME280;2300;51.874;8.430;2023-07-13T07:22:48;100702.88;;;21.54;66.43
4576;BME280;2300;51.874;8.430;2023-07-13T07:25:14;100697.88;;;21.83;65.38
4576;BME280;2300;51.874;8.430;2023-07-13T07:27:41;100697.34;;;22.41;65.16
4576;BME280;2300;51.874;8.430;2023-07-13T07:30:09;100702.13;;;22.54;62.92
4576;BME280;2300;51.874;8.430;2023-07-13T07:32:37;100695.81;;;22.48;63.35
4576;BME280;2300;51.874;8.430;2023-07-13T07:35:06;100700.78;;;22.38;64.61
4576;BME280;2300;51.874;8.430;2023-07-13T07:37:34;100700.19;;;21.81;64.80
4576;BME280;2300;51.874;8.430;2023-07-13T07:40:00;100702.72;;;21.64;64.76
4576;BME280;2300;51.874;8.430;2023-07-13T07:42:28;100701.34;;;21.61;65.81
4576;BME280;2300;51.874;8.430;2023-07-13T07:44:55;100707.38;;;21.68;65.50
4576;BME280;2300;51.874;8.430;2023-07-13T07:47:22;100702.63;;;21.69;64.68
4576;BME280;2300;51.874;8.430;2023-07-13T07:49:50;100706.94;;;21.29;66.47
4576;BME280;2300;51.874;8.430;2023-07-13T07:52:17;100697.81;;;21.23;67.06
4576;BME280;2300;51.874;8.430;2023-07-13T07:54:45;100698.44;;;21.85;65.44
4576;BME280;2300;51.874;8.430;2023-07-13T07:57:11;100708.13;;;22.06;65.89
4576;BME280;2300;51.874;8.430;2023-07-13T07:59:38;100698.19;;;22.14;63.27
4576;BME280;2300;51.874;8.430;2023-07-13T08:02:05;100698.69;;;22.57;64.11
4576;BME280;2300;51.874;8.430;2023-07-13T08:04:32;100708.91;;;23.02;64.42
4576;BME280;2300;51.874;8.430;2023-07-13T08:06:58;100713.94;;;22.51;63.52
4576;BME280;2300;51.874;8.430;2023-07-13T08:09:28;100710.50;;;22.13;64.26
4576;BME280;2300;51.874;8.430;2023-07-13T08:11:56;100709.06;;;22.29;65.59
4576;BME280;2300;51.874;8.430;2023-07-13T08:14:24;100710.22;;;22.69;65.72
4576;BME280;2300;51.874;8.430;2023-07-13T08:16:50;100714.84;;;22.60;63.06
4576;BME280;2300;51.874;8.430;2023-07-13T08:19:19;100714.16;;;22.41;63.38
4576;BME280;2300;51.874;8.430;2023-07-13T08:21:45;100710.81;;;22.11;64.21
4576;BME280;2300;51.874;8.430;2023-07-13T08:24:14;100707.91;;;22.30;64.07
4576;BME280;2300;51.874;8.430;2023-07-13T08:26:43;100709.38;;;22.82;63.35
4576;BME280;2300;51.874;8.430;2023-07-13T08:29:12;100715.38;;;22.89;62.03
4576;BME280;2300;51.874;8.430;2023-07-13T08:31:38;100710.31;;;23.14;63.03
4576;BME280;2300;51.874;8.430;2023-07-13T08:34:07;100717.03;;;23.62;62.79
4576;BME280;2300;51.874;8.430;2023-07-13T08:36:34;100709.25;;;23.23;61.02
4576;BME280;2300;51.874;8.430;2023-07-13T08:39:01;100708.13;;;22.61;62.29
4576;BME280;2300;51.874;8.430;2023-07-13T08:41:28;100714.47;;;21.93;63.83
4576;BME280;2300;51.874;8.430;2023-07-13T08:43:57;100715.59;;;22.52;65.29
4576;BME280;2300;51.874;8.430;2023-07-13T08:46:28;100710.31;;;22.64;63.16
4576;BME280;2300;51.874;8.430;2023-07-13T08:49:02;100705.78;;;21.81;62.05
4576;BME280;2300;51.874;8.430;2023-07-13T08:51:39;100713.09;;;22.37;65.11
4576;BME280;2300;51.874;8.430;2023-07-13T08:54:19;100715.31;;;22.67;64.45
4576;BME280;2300;51.874;8.430;2023-07-13T08:56:49;100708.75;;;22.44;62.63
4576;BME280;2300;51.874;8.430;2023-07-13T08:59:19;100700.06;;;22.73;63.48
4576;BME280;2300;51.874;8.430;2023-07-13T09:02:06;100717.28;;;23.16;63.89
4576;BME280;2300;51.874;8.430;2023-07-13T09:04:42;100718.06;;;23.30;60.01
4576;BME280;2300;51.874;8.430;2023-07-13T09:07:21;100720.53;;;22.96;60.88
4576;BME280;2300;51.874;8.430;2023-07-13T09:10:01;100721.75;;;23.03;61.89
4576;BME280;2300;51.874;8.430;2023-07-13T09:12:37;100712.88;;;22.88;62.75
4576;BME280;2300;51.874;8.430;2023-07-13T09:15:21;100710.28;;;23.27;62.46
4576;BME280;2300;51.874;8.430;2023-07-13T09:17:52;100722.31;;;23.41;60.94
4576;BME280;2300;51.874;8.430;2023-07-13T09:20:26;100717.16;;;23.57;61.42
4576;BME280;2300;51.874;8.430;2023-07-13T09:22:59;100703.00;;;23.40;59.39
4576;BME280;2300;51.874;8.430;2023-07-13T09:25:30;100709.31;;;23.10;60.82
4576;BME280;2300;51.874;8.430;2023-07-13T09:28:00;100713.81;;;23.77;63.32
4576;BME280;2300;51.874;8.430;2023-07-13T09:30:35;100710.94;;;23.69;60.08
4576;BME280;2300;51.874;8.430;2023-07-13T09:33:05;100710.25;;;23.63;60.12
4576;BME280;2300;51.874;8.430;2023-07-13T09:35:31;100711.63;;;23.30;59.11
4576;BME280;2300;51.874;8.430;2023-07-13T09:38:03;100717.66;;;22.60;60.49
4576;BME280;2300;51.874;8.430;2023-07-13T09:40:36;100716.72;;;22.64;60.87
4576;BME280;2300;51.874;8.430;2023-07-13T09:43:08;100714.94;;;22.96;60.88
4576;BME280;2300;51.874;8.430;2023-07-13T09:45:37;100711.75;;;23.25;61.34
4576;BME280;2300;51.874;8.430;2023-07-13T09:48:10;100714.19;;;23.04;61.00
4576;BME280;2300;51.874;8.430;2023-07-13T09:50:38;100712.69;;;22.84;60.25
4576;BME280;2300;51.874;8.430;2023-07-13T09:53:11;100713.53;;;22.57;61.64
4576;BME280;2300;51.874;8.430;2023-07-13T09:55:39;100716.06;;;23.09;61.79
4576;BME280;2300;51.874;8.430;2023-07-13T09:58:10;100720.28;;;23.20;61.35
4576;BME280;2300;51.874;8.430;2023-07-13T10:00:38;100718.09;;;22.67;60.41
4576;BME280;2300;51.874;8.430;2023-07-13T10:03:16;100727.16;;;23.36;61.80
4576;BME280;2300;51.874;8.430;2023-07-13T10:05:45;100725.22;;;23.59;60.49
4576;BME280;2300;51.874;8.430;2023-07-13T10:08:23;100728.09;;;23.45;60.05
4576;BME280;2300;51.874;8.430;2023-07-13T10:10:54;100724.22;;;23.19;60.14
4576;BME280;2300;51.874;8.430;2023-07-13T10:13:29;100724.41;;;22.59;60.77
4576;BME280;2300;51.874;8.430;2023-07-13T10:15:58;100726.19;;;22.69;60.70
4576;BME280;2300;51.874;8.430;2023-07-13T10:18:28;100728.00;;;22.87;61.25
4576;BME280;2300;51.874;8.430;2023-07-13T10:21:08;100731.13;;;22.85;59.49
4576;BME280;2300;51.874;8.430;2023-07-13T10:23:37;100725.44;;;22.77;60.29
4576;BME280;2300;51.874;8.430;2023-07-13T10:26:05;100726.16;;;22.82;61.80
4576;BME280;2300;51.874;8.430;2023-07-13T10:28:37;100722.84;;;22.94;60.99
4576;BME280;2300;51.874;8.430;2023-07-13T10:31:09;100734.03;;;23.66;60.66
4576;BME280;2300;51.874;8.430;2023-07-13T10:33:42;100733.94;;;23.79;59.38
4576;BME280;2300;51.874;8.430;2023-07-13T10:36:14;100739.81;;;24.14;61.15
4576;BME280;2300;51.874;8.430;2023-07-13T10:38:43;100732.63;;;24.30;56.66
4576;BME280;2300;51.874;8.430;2023-07-13T10:41:17;100743.13;;;24.64;56.95
4576;BME280;2300;51.874;8.430;2023-07-13T10:43:47;100737.06;;;24.70;57.08
4576;BME280;2300;51.874;8.430;2023-07-13T10:46:19;100725.56;;;24.81;58.49
4576;BME280;2300;51.874;8.430;2023-07-13T10:48:50;100717.97;;;24.90;58.36
4576;BME280;2300;51.874;8.430;2023-07-13T10:51:20;100724.34;;;24.25;55.80
4576;BME280;2300;51.874;8.430;2023-07-13T10:54:14;100737.28;;;24.43;58.23
4576;BME280;2300;51.874;8.430;2023-07-13T10:56:43;100732.53;;;24.52;57.38
4576;BME280;2300;51.874;8.430;2023-07-13T10:59:13;100730.50;;;24.84;57.83
4576;BME280;2300;51.874;8.430;2023-07-13T11:01:50;100731.50;;;24.88;56.64
4576;BME280;2300;51.874;8.430;2023-07-13T11:04:20;100735.34;;;25.18;54.50
4576;BME280;2300;51.874;8.430;2023-07-13T11:06:50;100718.94;;;24.77;54.11
4576;BME280;2300;51.874;8.430;2023-07-13T11:09:34;100735.22;;;24.66;55.46
4576;BME280;2300;51.874;8.430;2023-07-13T11:12:07;100730.72;;;24.56;54.30
4576;BME280;2300;51.874;8.430;2023-07-13T11:14:36;100731.16;;;24.41;54.02
4576;BME280;2300;51.874;8.430;2023-07-13T11:20:24;100729.09;;;24.55;56.16
4576;BME280;2300;51.874;8.430;2023-07-13T11:23:09;100713.94;;;24.25;55.37
4576;BME280;2300;51.874;8.430;2023-07-13T11:25:43;100723.66;;;24.67;55.86
4576;BME280;2300;51.874;8.430;2023-07-13T11:28:20;100727.75;;;24.61;53.75
4576;BME280;2300;51.874;8.430;2023-07-13T11:30:49;100730.66;;;24.39;54.64
4576;BME280;2300;51.874;8.430;2023-07-13T11:33:20;100729.59;;;24.18;54.25
4576;BME280;2300;51.874;8.430;2023-07-13T11:36:03;100743.25;;;24.50;57.54
4576;BME280;2300;51.874;8.430;2023-07-13T11:38:34;100727.63;;;24.66;53.69
4576;BME280;2300;51.874;8.430;2023-07-13T11:41:06;100723.69;;;24.28;54.09
4576;BME280;2300;51.874;8.430;2023-07-13T11:43:34;100724.84;;;24.05;54.64
4576;BME280;2300;51.874;8.430;2023-07-13T11:46:16;100724.84;;;24.05;55.78
4576;BME280;2300;51.874;8.430;2023-07-13T11:48:46;100731.25;;;24.19;56.65
4576;BME280;2300;51.874;8.430;2023-07-13T11:51:20;100732.69;;;24.95;56.85
4576;BME280;2300;51.874;8.430;2023-07-13T11:53:50;100734.56;;;25.69;54.64
4576;BME280;2300;51.874;8.430;2023-07-13T11:56:19;100734.72;;;25.46;53.64
4576;BME280;2300;51.874;8.430;2023-07-13T11:58:49;100729.72;;;25.00;55.29
4576;BME280;2300;51.874;8.430;2023-07-13T12:01:20;100739.81;;;25.10;56.66
4576;BME280;2300;51.874;8.430;2023-07-13T12:03:49;100734.34;;;25.13;54.40
4576;BME280;2300;51.874;8.430;2023-07-13T12:06:25;100725.94;;;25.22;55.46
4576;BME280;2300;51.874;8.430;2023-07-13T12:08:56;100733.72;;;24.68;54.33
4576;BME280;2300;51.874;8.430;2023-07-13T12:11:25;100734.41;;;24.26;54.87
4576;BME280;2300;51.874;8.430;2023-07-13T12:13:53;100723.84;;;24.31;55.94
4576;BME280;2300;51.874;8.430;2023-07-13T12:16:26;100721.91;;;24.89;56.18
4576;BME280;2300;51.874;8.430;2023-07-13T12:18:56;100731.88;;;25.12;53.39
4576;BME280;2300;51.874;8.430;2023-07-13T12:21:29;100732.34;;;25.05;54.21
4576;BME280;2300;51.874;8.430;2023-07-13T12:23:57;100727.50;;;24.71;54.06
4576;BME280;2300;51.874;8.430;2023-07-13T12:26:23;100721.56;;;24.03;55.04
4576;BME280;2300;51.874;8.430;2023-07-13T12:28:54;100734.47;;;23.59;56.52
4576;BME280;2300;51.874;8.430;2023-07-13T12:31:29;100734.16;;;23.25;57.13
4576;BME280;2300;51.874;8.430;2023-07-13T12:33:59;100734.53;;;23.32;57.73
4576;BME280;2300;51.874;8.430;2023-07-13T12:36:26;100738.97;;;23.91;56.19
4576;BME280;2300;51.874;8.430;2023-07-13T12:38:56;100732.66;;;24.47;54.86
4576;BME280;2300;51.874;8.430;2023-07-13T12:41:23;100740.41;;;24.11;55.12
4576;BME280;2300;51.874;8.430;2023-07-13T12:43:50;100743.38;;;24.06;55.80
4576;BME280;2300;51.874;8.430;2023-07-13T12:46:23;100737.19;;;24.26;56.05
4576;BME280;2300;51.874;8.430;2023-07-13T12:48:54;100742.53;;;24.76;55.22
4576;BME280;2300;51.874;8.430;2023-07-13T12:51:22;100735.16;;;24.97;55.33
4576;BME280;2300;51.874;8.430;2023-07-13T12:53:55;100715.19;;;25.07;55.21
4576;BME280;2300;51.874;8.430;2023-07-13T12:56:25;100745.16;;;25.37;53.54
4576;BME280;2300;51.874;8.430;2023-07-13T12:58:57;100723.78;;;25.36;54.16
4576;BME280;2300;51.874;8.430;2023-07-13T13:01:27;100736.19;;;25.35;53.01
4576;BME280;2300;51.874;8.430;2023-07-13T13:03:55;100727.44;;;25.45;53.56
4576;BME280;2300;51.874;8.430;2023-07-13T13:06:24;100717.53;;;25.39;52.62
4576;BME280;2300;51.874;8.430;2023-07-13T13:08:54;100721.34;;;25.52;51.27
4576;BME280;2300;51.874;8.430;2023-07-13T13:11:23;100730.22;;;25.11;51.25
4576;BME280;2300;51.874;8.430;2023-07-13T13:13:51;100724.25;;;25.04;50.62
4576;BME280;2300;51.874;8.430;2023-07-13T13:16:21;100727.38;;;24.94;50.96
4576;BME280;2300;51.874;8.430;2023-07-13T13:18:51;100733.81;;;24.46;52.00
4576;BME280;2300;51.874;8.430;2023-07-13T13:21:18;100731.66;;;24.83;52.41
4576;BME280;2300;51.874;8.430;2023-07-13T13:23:45;100717.34;;;25.27;52.71